createdAt,value
2023-01-30T00:08:46.835Z,73.95
2023-01-30T00:13:09.271Z,74.04
2023-01-30T00:17:20.671Z,73.94
2023-01-30T00:38:55.681Z,73.88
2023-01-30T00:43:23.639Z,73.87
2023-01-30T01:06:03.867Z,73.82
2023-01-30T01:10:36.024Z,73.78
2023-01-30T01:32:02.890Z,73.77
2023-01-30T01:41:19.445Z,73.79
2023-01-30T01:45:57.387Z,73.80
2023-01-30T01:50:27.796Z,73.74
2023-01-30T01:54:50.103Z,73.83
2023-01-30T01:59:02.427Z,73.90
2023-01-30T02:03:36.643Z,73.64
2023-01-30T02:30:05.913Z,73.91
2023-01-30T02:34:37.383Z,73.83
2023-01-30T02:39:05.378Z,73.94
2023-01-30T02:43:33.348Z,74.08
2023-01-30T02:47:55.837Z,74.09
2023-01-30T03:09:48.733Z,74.10
2023-01-30T03:14:30.244Z,74.29
2023-01-30T03:19:00.192Z,74.34
2023-01-30T03:44:47.464Z,74.41
2023-01-30T03:48:56.645Z,74.36
2023-01-30T03:53:25.744Z,74.44
2023-01-30T03:58:02.422Z,74.42
2023-01-30T04:19:32.782Z,74.35
2023-01-30T04:24:01.952Z,74.59
2023-01-30T04:28:24.127Z,74.37
2023-01-30T04:32:46.034Z,74.45
2023-01-30T04:36:44.022Z,74.41
2023-01-30T04:41:13.031Z,74.41
2023-01-30T05:02:02.921Z,74.57
2023-01-30T05:06:12.114Z,74.72
2023-01-30T05:10:09.575Z,74.90
2023-01-30T05:14:32.516Z,74.76
2023-01-30T05:41:39.380Z,75.24
2023-01-30T05:45:57.658Z,75.14
2023-01-30T06:11:58.856Z,75.37
2023-01-30T06:16:27.887Z,75.36
2023-01-30T06:20:57.060Z,75.63
2023-01-30T06:25:16.722Z,75.63
2023-01-30T06:29:36.413Z,75.79
2023-01-30T06:33:49.691Z,75.83
2023-01-30T06:37:52.308Z,75.86
2023-01-30T06:41:12.384Z,75.80
2023-01-30T06:45:30.345Z,75.90
2023-01-30T06:49:27.282Z,76.04
2023-01-30T06:53:12.519Z,76.01
2023-01-30T06:56:43.706Z,76.16
2023-01-30T07:00:22.669Z,76.25
2023-01-30T07:04:45.186Z,76.32
2023-01-30T07:08:59.762Z,76.51
2023-01-30T07:13:11.710Z,76.12
2023-01-30T07:16:34.126Z,76.37
2023-01-30T07:20:52.995Z,76.45
2023-01-30T07:24:55.460Z,76.62
2023-01-30T07:28:50.718Z,76.74
2023-01-30T07:33:02.847Z,76.83
2023-01-30T07:37:03.817Z,77.00
2023-01-30T07:40:29.412Z,76.49
2023-01-30T07:43:46.644Z,76.71
2023-01-30T07:47:19.687Z,76.96
2023-01-30T07:51:16.865Z,76.87
2023-01-30T07:57:56.836Z,77.13
2023-01-30T08:01:42.234Z,77.26
2023-01-30T08:12:33.265Z,77.00
2023-01-30T08:16:40.780Z,77.12
2023-01-30T08:20:37.834Z,77.16
2023-01-30T08:24:44.203Z,77.03
2023-01-30T08:28:24.213Z,76.88
2023-01-30T08:32:36.370Z,76.71
2023-01-30T08:36:51.038Z,77.01
2023-01-30T08:40:21.750Z,77.06
2023-01-30T08:43:44.009Z,77.10
2023-01-30T08:47:30.664Z,76.98
2023-01-30T08:51:27.335Z,77.04
2023-01-30T08:54:48.373Z,77.03
2023-01-30T08:58:02.000Z,77.02
2023-01-30T09:01:09.367Z,77.09
2023-01-30T09:04:25.028Z,77.38
2023-01-30T09:08:24.096Z,77.29
2023-01-30T09:11:56.125Z,77.02
2023-01-30T09:15:47.133Z,76.77
2023-01-30T09:20:07.237Z,76.94
2023-01-30T09:24:22.556Z,76.59
2023-01-30T09:28:01.787Z,76.65
2023-01-30T09:31:22.539Z,76.61
2023-01-30T09:34:22.052Z,76.33
2023-01-30T09:38:19.053Z,76.85
2023-01-30T09:42:03.028Z,76.49
2023-01-30T09:46:00.677Z,76.62
2023-01-30T09:50:14.602Z,76.82
2023-01-30T09:54:18.148Z,76.79
2023-01-30T09:57:59.263Z,76.67
2023-01-30T10:02:01.369Z,76.54
2023-01-30T10:06:12.081Z,76.59
2023-01-30T10:10:39.507Z,76.91
2023-01-30T10:14:36.422Z,76.60
2023-01-30T10:18:53.569Z,76.16
2023-01-30T10:22:45.970Z,75.86
2023-01-30T10:29:40.317Z,75.24
2023-01-30T10:33:01.168Z,75.23
2023-01-30T10:37:04.307Z,75.23
2023-01-30T10:40:59.497Z,75.16
2023-01-30T10:45:03.702Z,75.23
2023-01-30T10:49:55.396Z,75.65
2023-01-30T10:53:43.177Z,75.44
2023-01-30T10:57:45.137Z,75.14
2023-01-30T11:47:28.375Z,74.56
2023-01-30T11:51:04.716Z,74.34
2023-01-30T11:58:50.213Z,74.79
2023-01-30T12:01:52.121Z,75.03
2023-01-30T12:06:06.658Z,74.92
2023-01-30T12:09:24.504Z,75.15
2023-01-30T12:13:04.093Z,75.10
2023-01-30T12:21:24.559Z,75.16
2023-01-30T12:25:33.001Z,75.30
2023-01-30T12:29:04.818Z,75.22
2023-01-30T12:32:50.762Z,75.50
2023-01-30T12:37:19.207Z,75.38
2023-01-30T12:41:40.780Z,75.23
2023-01-30T12:45:39.378Z,75.11
2023-01-30T12:49:46.678Z,75.30
2023-01-30T12:53:39.761Z,75.46
2023-01-30T12:57:22.321Z,75.64
2023-01-30T13:01:28.476Z,75.76
2023-01-30T13:06:11.556Z,75.76
2023-01-30T13:10:09.074Z,75.93
2023-01-30T13:13:52.808Z,75.91
2023-01-30T13:18:23.326Z,75.76
2023-01-30T13:22:16.222Z,76.00
2023-01-30T13:30:50.452Z,75.74
2023-01-30T13:33:55.014Z,75.46
2023-01-30T13:37:57.360Z,74.93
2023-01-30T13:41:46.030Z,74.89
2023-01-30T13:46:02.739Z,75.10
2023-01-30T13:50:24.549Z,75.35
2023-01-30T13:54:32.980Z,75.44
2023-01-30T13:58:25.911Z,75.40
2023-01-30T14:02:42.284Z,75.49
2023-01-30T14:06:13.537Z,74.93
2023-01-30T14:09:56.611Z,75.20
2023-01-30T14:13:15.189Z,75.03
2023-01-30T14:16:22.328Z,75.16
2023-01-30T14:19:50.808Z,75.09
2023-01-30T14:23:35.470Z,74.90
2023-01-30T14:28:00.657Z,75.38
2023-01-30T14:31:07.904Z,75.05
2023-01-30T14:35:03.215Z,75.38
2023-01-30T14:38:50.237Z,75.49
2023-01-30T14:41:54.523Z,75.20
2023-01-30T14:45:13.700Z,75.37
2023-01-30T14:49:48.805Z,75.70
2023-01-30T14:53:15.867Z,75.08
2023-01-30T14:56:54.979Z,75.48
2023-01-30T15:00:25.626Z,75.49
2023-01-30T15:03:48.457Z,75.34
2023-01-30T15:06:41.936Z,75.34
2023-01-30T15:09:57.530Z,75.57
2023-01-30T15:13:38.976Z,75.66
2023-01-30T15:18:01.988Z,75.56
2023-01-30T15:22:06.537Z,75.39
2023-01-30T15:25:56.604Z,75.42
2023-01-30T15:30:03.165Z,75.50
2023-01-30T15:33:55.542Z,75.55
2023-01-30T15:37:36.234Z,75.65
2023-01-30T15:41:02.865Z,75.85
2023-01-30T15:45:00.928Z,75.80
2023-01-30T15:48:19.831Z,75.88
2023-01-30T15:51:29.765Z,75.97
2023-01-30T15:55:38.426Z,75.61
2023-01-30T15:59:34.688Z,75.90
2023-01-30T16:04:05.265Z,76.04
2023-01-30T16:08:01.165Z,76.10
2023-01-30T16:11:16.821Z,76.16
2023-01-30T16:15:18.411Z,76.04
2023-01-30T16:19:26.668Z,76.28
2023-01-30T16:23:45.215Z,75.99
2023-01-30T16:27:59.158Z,76.10
2023-01-30T16:31:56.236Z,76.10
2023-01-30T16:36:15.948Z,76.32
2023-01-30T16:40:33.920Z,76.36
2023-01-30T16:45:14.069Z,76.24
2023-01-30T16:49:44.124Z,76.43
2023-01-30T16:53:15.853Z,76.36
2023-01-30T16:56:47.753Z,76.22
2023-01-30T17:01:09.375Z,76.41
2023-01-30T17:04:44.366Z,76.10
2023-01-30T17:09:10.725Z,76.06
2023-01-30T17:41:57.738Z,75.72
2023-01-30T17:46:28.203Z,75.80
2023-01-30T17:50:58.431Z,75.86
2023-01-30T17:55:18.453Z,75.63
2023-01-30T17:59:49.102Z,75.59
2023-01-30T18:04:18.983Z,75.67
2023-01-30T18:08:49.867Z,75.75
2023-01-30T18:43:13.581Z,75.79
2023-01-30T18:47:35.885Z,75.53
2023-01-30T18:51:58.199Z,76.05
2023-01-30T18:56:29.879Z,76.28
2023-01-30T19:00:43.784Z,75.62
2023-01-30T19:05:13.248Z,75.60
2023-01-30T19:29:52.283Z,75.84
2023-01-30T19:34:05.066Z,75.67
2023-01-30T19:38:07.022Z,75.94
2023-01-30T19:42:40.370Z,75.80
2023-01-30T19:47:14.487Z,75.64
2023-01-30T19:51:22.650Z,75.96
2023-01-30T19:55:28.844Z,75.32
2023-01-30T19:59:57.898Z,75.25
2023-01-30T20:04:26.099Z,75.34
2023-01-30T20:08:55.751Z,74.83
2023-01-30T20:12:45.219Z,74.83
2023-01-30T20:15:45.517Z,74.35
2023-01-30T20:20:05.850Z,74.74
2023-01-30T20:50:31.314Z,73.26
2023-01-30T20:55:01.429Z,73.39
2023-01-30T20:59:32.229Z,73.08
2023-01-30T21:22:07.464Z,71.93
2023-01-30T21:26:27.418Z,71.93
2023-01-30T21:30:57.160Z,72.22
2023-01-30T21:39:19.113Z,71.78
2023-01-30T21:43:48.157Z,71.54
2023-01-30T21:48:00.545Z,71.61
2023-01-30T22:14:15.268Z,71.26
2023-01-30T22:18:44.497Z,70.83
2023-01-30T22:23:02.243Z,70.86
2023-01-30T22:27:27.572Z,70.58
2023-01-30T22:49:23.839Z,70.22
2023-01-30T22:53:54.724Z,70.47
2023-01-30T23:15:42.647Z,70.05
2023-01-30T23:19:54.957Z,70.10
2023-01-30T23:24:24.392Z,69.91
2023-01-30T23:46:01.604Z,69.81
2023-01-30T23:50:31.008Z,69.91
2023-01-30T23:55:01.094Z,69.79
